KSUU/SUU METAR and TAF weather

Enter ICAO airport designator
Station Type Date Time Source
KSUU METAR 2020/07/05 02:58 UTC NOAA

KSUU 050258Z AUTO 23013KT 10SM CLR 29/08 A2992 RMK AO2 SLP138 T02930083 55005 $


Station Type Date Time Source
KSUU Decoded METAR 2020/07/05 02:58 UTC NOAA

Fairfield / Travis Air Force Base, CA, United States (KSUU) 38-16N 121-57W 22M
Jul 04, 2020 - 10:58 PM EDT / 2020.07.05 0258 UTC
Wind: from the SW (230 degrees) at 15 MPH (13 KT):0
Visibility: 10 mile(s):0
Sky conditions: clear
Temperature: 84.7 F (29.3 C)
Dew Point: 46.9 F (8.3 C)
Relative Humidity: 26%
Pressure (altimeter): 29.92 in. Hg (1013 hPa)
Pressure tendency: 0.01 inches (0.5 hPa) lower than three hours ago
ob: KSUU 050258Z AUTO 23013KT 10SM CLR 29/08 A2992 RMK AO2 SLP138 T02930083 55005
cycle: 3

Station Type Date Time Source
KSUU TAF 2020/07/05 01:07 UTC NOAA

TAF
AMD KSUU 050100Z 0501/0601 23012G18KT 9999 SKC QNH2991INS
BECMG 0501/0502 23015G25KT 9999 SKC QNH2989INS
BECMG 0504/0505 23010G15KT 9999 SKC QNH2984INS
BECMG 0520/0521 23010G15KT 9999 SKC QNH2984INS
BECMG 0523/0524 23015G25KT 9999 SKC QNH2982INS TX35/0501Z TN15/0513Z

Example: see airport list